Time;durP1;ratioP1;P1;durP2;ratioP2;P2;SDS_P1;SDS_P2;PMS_P1;PMS_P2;Temp;Humidity;BMP_temperature;BMP_pressure;BME280_temperature;BME280_humidity;BME280_pressure;Samples;Min_cycle;Max_cycle;Signal;HPM_P1;HPM_P2
2022/11/11 00:02:00;;;;;;;31.83;17.25;;;11.30;99.90;;;;;;5052309;28;20051;-72
2022/11/11 00:04:44;;;;;;;28.27;16.92;;;11.30;99.90;;;;;;5053294;28;20044;-72
2022/11/11 00:07:28;;;;;;;25.92;16.15;;;11.20;99.90;;;;;;5052952;28;20060;-72
2022/11/11 00:10:12;;;;;;;28.90;16.35;;;11.20;99.90;;;;;;5040058;28;20400;-71
2022/11/11 00:13:02;;;;;;;25.90;16.88;;;11.20;99.90;;;;;;5053388;28;20048;-72
2022/11/11 00:15:46;;;;;;;27.88;17.13;;;11.30;99.90;;;;;;5052875;28;20380;-71
2022/11/11 00:27:34;;;;;;;29.33;17.15;;;11.00;99.90;;;;;;5052227;28;20139;-72
2022/11/11 00:30:19;;;;;;;30.45;16.73;;;11.10;99.90;;;;;;5053090;28;20051;-72
2022/11/11 00:33:04;;;;;;;30.23;16.30;;;11.10;99.90;;;;;;5052672;28;20080;-71
2022/11/11 00:35:54;;;;;;;28.48;16.35;;;11.10;99.90;;;;;;5052372;28;20075;-72
2022/11/11 00:38:46;;;;;;;25.83;15.02;;;11.10;99.90;;;;;;5052780;28;20075;-72
2022/11/11 00:41:30;;;;;;;29.90;17.13;;;11.10;99.90;;;;;;5052517;28;20120;-72
2022/11/11 00:44:14;;;;;;;28.52;16.15;;;11.00;99.90;;;;;;5052548;28;20056;-72
2022/11/11 00:53:15;;;;;;;25.80;13.90;;;11.10;99.90;;;;;;5039476;28;20125;-71
2022/11/11 00:55:59;;;;;;;30.13;16.67;;;10.90;99.90;;;;;;5052463;28;20055;-72
2022/11/11 00:58:44;;;;;;;30.77;17.27;;;10.90;99.90;;;;;;5052509;28;20436;-71
2022/11/11 01:01:28;;;;;;;25.33;16.20;;;10.90;99.90;;;;;;5052705;28;20384;-71
2022/11/11 01:04:13;;;;;;;24.65;16.20;;;11.00;99.90;;;;;;5052505;28;20550;-71
2022/11/11 01:06:57;;;;;;;25.50;16.15;;;11.10;99.90;;;;;;5040660;28;20052;-72
2022/11/11 01:09:41;;;;;;;25.73;15.45;;;11.00;99.90;;;;;;5052230;28;20043;-71
2022/11/11 01:12:25;;;;;;;28.80;16.60;;;11.10;99.90;;;;;;5052489;28;20039;-71
2022/11/11 01:15:10;;;;;;;28.00;16.38;;;11.00;99.90;;;;;;5052442;28;20039;-71
2022/11/11 01:17:54;;;;;;;27.38;16.67;;;11.10;99.90;;;;;;5052066;28;20052;-70
2022/11/11 01:20:40;;;;;;;32.53;16.48;;;11.00;99.90;;;;;;5052286;28;20059;-70
2022/11/11 01:23:25;;;;;;;24.48;16.88;;;11.00;99.90;;;;;;5051398;28;20040;-72
2022/11/11 01:26:16;;;;;;;30.77;15.43;;;11.00;99.90;;;;;;5052162;28;20040;-71
2022/11/11 01:29:00;;;;;;;27.23;16.52;;;10.90;99.90;;;;;;5040403;28;20039;-72
2022/11/11 01:31:44;;;;;;;24.50;16.23;;;11.10;99.90;;;;;;5056123;28;20048;-72
2022/11/11 01:34:28;;;;;;;27.70;15.90;;;11.00;99.90;;;;;;5056090;28;20504;-72
2022/11/11 01:37:12;;;;;;;29.20;15.88;;;11.10;99.90;;;;;;5055951;28;20059;-72
2022/11/11 01:39:57;;;;;;;26.83;14.68;;;11.00;99.90;;;;;;5042283;28;20099;-71
2022/11/11 01:42:51;;;;;;;26.15;15.02;;;11.10;99.90;;;;;;5055812;28;20036;-72
2022/11/11 01:45:48;;;;;;;29.17;15.40;;;11.20;99.90;;;;;;5055889;28;20040;-71
2022/11/11 01:52:12;;;;;;;25.80;14.35;;;11.10;99.90;;;;;;5055844;28;20071;-72
2022/11/11 01:55:17;;;;;;;23.20;14.43;;;11.10;99.90;;;;;;5055612;28;20028;-72
2022/11/11 01:58:14;;;;;;;22.75;13.60;;;11.20;99.90;;;;;;5055268;28;20036;-72
2022/11/11 02:00:59;;;;;;;25.05;14.50;;;11.20;99.90;;;;;;5055620;28;20086;-73
2022/11/11 02:05:41;;;;;;;23.30;14.35;;;11.20;99.90;;;;;;5055143;28;20094;-72
2022/11/11 02:06:55;;;;;;;23.75;12.52;;;11.10;99.90;;;;;;5055380;28;20039;-72
2022/11/11 02:09:43;;;;;;;31.80;14.52;;;11.00;99.90;;;;;;5055918;28;20044;-71
2022/11/11 02:15:30;;;;;;;20.20;12.63;;;11.10;99.90;;;;;;5055051;28;20413;-71
2022/11/11 02:18:15;;;;;;;22.65;12.43;;;11.10;99.90;;;;;;5055575;28;20123;-71
2022/11/11 02:20:59;;;;;;;25.80;12.63;;;11.00;99.90;;;;;;5055723;28;20071;-72
2022/11/11 02:24:02;;;;;;;23.58;13.15;;;11.00;99.90;;;;;;5054737;28;20630;-72
2022/11/11 02:26:48;;;;;;;28.20;13.43;;;10.80;99.90;;;;;;5055305;28;20154;-72
2022/11/11 02:29:34;;;;;;;24.13;12.38;;;10.90;99.90;;;;;;5042946;28;20120;-71
2022/11/11 02:32:19;;;;;;;28.08;12.73;;;10.90;99.90;;;;;;5054440;28;20036;-72
2022/11/11 02:35:15;;;;;;;22.85;13.00;;;11.00;99.90;;;;;;5054787;28;20032;-72
2022/11/11 02:38:07;;;;;;;23.25;11.93;;;11.00;99.90;;;;;;5055132;28;20052;-71
2022/11/11 02:43:56;;;;;;;22.40;12.52;;;10.90;99.90;;;;;;5055059;28;20044;-72
2022/11/11 02:46:44;;;;;;;22.70;12.65;;;10.90;99.90;;;;;;5041929;28;20558;-72
2022/11/11 02:49:28;;;;;;;21.13;12.60;;;11.00;99.90;;;;;;5054509;28;20048;-70
2022/11/11 02:52:12;;;;;;;23.00;12.98;;;11.00;99.90;;;;;;5055010;28;20171;-71
2022/11/11 02:54:56;;;;;;;24.15;12.60;;;10.90;99.90;;;;;;5053734;28;20102;-72
2022/11/11 02:57:41;;;;;;;24.80;12.63;;;10.80;99.90;;;;;;5054296;28;20036;-71
2022/11/11 03:00:25;;;;;;;23.30;12.05;;;10.80;99.90;;;;;;5054588;28;20500;-71
2022/11/11 03:03:10;;;;;;;26.38;14.13;;;10.70;99.90;;;;;;5054344;28;20056;-71
2022/11/11 03:05:54;;;;;;;29.10;12.40;;;10.70;99.90;;;;;;5054674;28;20190;-71
2022/11/11 03:08:38;;;;;;;23.98;12.73;;;10.70;99.90;;;;;;5040915;28;20393;-70
2022/11/11 03:11:29;;;;;;;27.08;15.18;;;10.70;99.90;;;;;;5054496;28;20044;-70
2022/11/11 03:14:13;;;;;;;23.13;13.60;;;10.60;99.90;;;;;;5053687;28;20043;-70
2022/11/11 03:23:14;;;;;;;28.35;14.05;;;10.60;99.90;;;;;;5054013;28;20313;-71
2022/11/11 03:25:58;;;;;;;27.25;13.20;;;10.60;99.90;;;;;;5042917;28;20052;-71
2022/11/11 03:28:42;;;;;;;24.58;13.50;;;10.60;99.90;;;;;;5053847;28;20071;-70
2022/11/11 03:31:27;;;;;;;21.52;12.25;;;10.60;99.90;;;;;;5053607;28;20095;-70
2022/11/11 03:34:17;;;;;;;29.58;13.98;;;10.60;99.90;;;;;;5054083;28;20405;-71
2022/11/11 03:40:06;;;;;;;20.60;13.30;;;10.50;99.90;;;;;;5043572;28;20044;-72
2022/11/11 03:42:50;;;;;;;25.42;13.52;;;10.50;99.90;;;;;;5052777;28;20087;-71
2022/11/11 03:45:34;;;;;;;20.27;12.63;;;10.50;99.90;;;;;;5053691;28;20102;-72
2022/11/11 03:48:19;;;;;;;21.27;13.60;;;10.60;99.90;;;;;;5040781;28;20057;-71
2022/11/11 03:51:03;;;;;;;21.85;12.25;;;10.70;99.90;;;;;;5053311;28;20439;-72
2022/11/11 03:53:47;;;;;;;20.33;11.25;;;10.60;99.90;;;;;;5052619;28;20082;-70
2022/11/11 03:56:32;;;;;;;25.73;12.55;;;10.50;99.90;;;;;;5053611;28;20032;-70
2022/11/11 03:59:16;;;;;;;16.48;11.23;;;10.50;99.90;;;;;;5053171;28;20063;-70
2022/11/11 04:11:28;;;;;;;21.60;11.57;;;10.30;99.90;;;;;;5052974;28;20071;-71
2022/11/11 04:17:16;;;;;;;26.33;12.80;;;10.50;99.90;;;;;;5040502;28;20135;-71
2022/11/11 04:23:04;;;;;;;19.23;11.63;;;10.40;99.90;;;;;;5052879;28;20044;-70
2022/11/11 04:25:48;;;;;;;27.17;14.30;;;10.30;99.90;;;;;;5040897;28;20043;-72
2022/11/11 04:31:35;;;;;;;29.67;14.60;;;10.20;99.90;;;;;;5053158;28;20036;-70
2022/11/11 04:34:19;;;;;;;28.23;14.57;;;10.30;99.90;;;;;;5052668;28;20086;-70
2022/11/11 04:37:03;;;;;;;23.70;14.15;;;10.10;99.90;;;;;;5052673;28;20546;-72
2022/11/11 04:42:54;;;;;;;27.27;12.57;;;10.20;99.90;;;;;;5052375;28;20036;-71
2022/11/11 04:45:38;;;;;;;21.73;13.25;;;10.10;99.90;;;;;;5052762;28;20119;-70
2022/11/11 04:48:23;;;;;;;25.67;14.27;;;10.10;99.90;;;;;;5052589;28;20048;-69
2022/11/11 04:51:06;;;;;;;20.77;13.95;;;10.10;99.90;;;;;;5052865;28;20036;-70
2022/11/11 04:53:51;;;;;;;24.92;13.35;;;10.10;99.90;;;;;;5052704;28;20036;-70
2022/11/11 04:56:47;;;;;;;22.15;13.20;;;10.10;99.90;;;;;;5052316;28;20546;-70
2022/11/11 04:59:31;;;;;;;18.35;13.27;;;10.00;99.90;;;;;;5052492;28;20068;-70
2022/11/11 05:05:19;;;;;;;20.98;13.57;;;10.00;99.90;;;;;;5038930;28;20460;-70
2022/11/11 05:11:06;;;;;;;24.10;13.55;;;10.10;99.90;;;;;;5052316;28;20086;-70
2022/11/11 05:23:03;;;;;;;18.77;12.80;;;10.10;99.90;;;;;;5052260;28;20405;-69
2022/11/11 05:25:47;;;;;;;23.25;13.25;;;10.10;99.90;;;;;;5039680;28;20036;-70
2022/11/11 05:28:31;;;;;;;32.25;13.15;;;10.00;99.90;;;;;;5051999;28;20071;-70
2022/11/11 05:31:15;;;;;;;23.90;12.55;;;10.10;99.90;;;;;;5052414;28;20152;-70
2022/11/11 05:33:59;;;;;;;24.80;13.00;;;10.10;99.90;;;;;;5051754;28;20048;-70
2022/11/11 05:36:43;;;;;;;34.67;13.27;;;10.20;99.90;;;;;;5052524;28;20048;-70
2022/11/11 05:39:27;;;;;;;23.02;12.57;;;10.30;99.90;;;;;;5051624;28;20075;-70
2022/11/11 05:42:12;;;;;;;19.90;12.50;;;10.30;99.90;;;;;;5052102;28;20103;-70
2022/11/11 05:44:56;;;;;;;19.92;12.85;;;10.20;99.90;;;;;;5051230;28;20091;-70
2022/11/11 05:47:40;;;;;;;24.20;13.40;;;10.00;99.90;;;;;;5052403;28;20044;-70
2022/11/11 05:50:24;;;;;;;25.17;13.63;;;10.10;99.90;;;;;;5052385;28;20413;-69
2022/11/11 05:53:09;;;;;;;24.30;13.63;;;10.10;99.90;;;;;;5051342;28;20114;-70
2022/11/11 05:55:53;;;;;;;27.00;13.77;;;10.00;99.90;;;;;;5051034;28;20393;-70
2022/11/11 05:58:37;;;;;;;19.40;12.85;;;10.00;99.90;;;;;;5038773;28;20512;-70
2022/11/11 06:01:21;;;;;;;24.17;13.48;;;10.00;99.90;;;;;;5051116;28;20079;-69
2022/11/11 06:04:06;;;;;;;18.35;12.57;;;10.10;99.90;;;;;;5051431;28;20048;-70
2022/11/11 06:06:51;;;;;;;20.95;13.40;;;10.10;99.90;;;;;;5051887;28;20040;-69
2022/11/11 06:09:35;;;;;;;24.40;12.82;;;10.20;99.90;;;;;;5049868;28;20063;-69
2022/11/11 06:12:19;;;;;;;22.90;13.52;;;10.00;99.90;;;;;;5052104;28;20516;-70
2022/11/11 06:15:03;;;;;;;37.72;13.63;;;9.90;99.90;;;;;;5050817;28;20040;-70
2022/11/11 06:17:48;;;;;;;26.73;15.00;;;10.00;99.90;;;;;;5056067;28;20072;-70
2022/11/11 06:20:35;;;;;;;22.63;13.80;;;9.90;99.90;;;;;;5054859;28;20546;-69
2022/11/11 06:23:19;;;;;;;28.80;14.05;;;9.90;99.90;;;;;;5054989;28;20902;-70
2022/11/11 06:26:14;;;;;;;23.38;14.48;;;10.00;99.90;;;;;;5055440;28;20048;-70
2022/11/11 06:28:58;;;;;;;24.30;14.88;;;9.90;99.90;;;;;;5054891;28;20056;-70
2022/11/11 06:31:44;;;;;;;32.38;15.52;;;9.90;99.90;;;;;;5055281;28;20116;-69
2022/11/11 06:34:28;;;;;;;24.08;15.20;;;9.80;99.90;;;;;;5055254;28;20048;-69
2022/11/11 06:37:12;;;;;;;22.60;13.77;;;9.80;99.90;;;;;;5054559;28;20039;-70
2022/11/11 06:39:56;;;;;;;26.77;13.82;;;9.80;99.90;;;;;;5043344;28;20055;-70
2022/11/11 06:42:40;;;;;;;24.58;14.27;;;9.90;99.90;;;;;;5055456;28;22158;-69
2022/11/11 06:45:26;;;;;;;29.65;14.43;;;9.80;99.90;;;;;;5054727;28;20047;-70
2022/11/11 06:48:10;;;;;;;26.67;14.18;;;9.80;99.90;;;;;;5054858;28;20044;-69
2022/11/11 06:51:01;;;;;;;26.38;14.68;;;9.90;99.90;;;;;;5055015;28;20155;-70
2022/11/11 06:53:45;;;;;;;24.20;12.75;;;9.90;99.90;;;;;;5053767;28;20163;-69
2022/11/11 06:56:29;;;;;;;25.35;13.63;;;9.90;99.90;;;;;;5050379;28;20087;-69
2022/11/11 06:59:13;;;;;;;25.88;13.93;;;9.80;99.90;;;;;;5057832;28;20095;-70
2022/11/11 07:01:58;;;;;;;22.88;14.43;;;9.70;99.90;;;;;;5055860;28;20047;-69
2022/11/11 07:04:42;;;;;;;20.55;13.25;;;9.60;99.90;;;;;;5053518;28;20377;-69
2022/11/11 07:07:27;;;;;;;25.77;14.40;;;9.70;99.90;;;;;;5056447;28;20440;-70
2022/11/11 07:10:11;;;;;;;29.20;15.52;;;9.80;99.90;;;;;;5039546;28;20044;-70
2022/11/11 07:12:55;;;;;;;26.67;15.82;;;9.80;99.90;;;;;;5057008;28;20032;-70
2022/11/11 07:15:41;;;;;;;25.58;13.88;;;9.80;99.90;;;;;;5050011;28;20381;-70
2022/11/11 07:18:25;;;;;;;25.85;14.55;;;9.80;99.90;;;;;;5059322;28;20094;-71
2022/11/11 07:21:09;;;;;;;24.77;13.80;;;9.90;99.90;;;;;;5052371;28;20097;-69
2022/11/11 07:23:53;;;;;;;21.00;12.55;;;9.70;99.90;;;;;;5059453;28;20082;-70
2022/11/11 07:26:37;;;;;;;19.40;12.95;;;9.60;99.90;;;;;;5054846;28;20040;-69
2022/11/11 07:29:22;;;;;;;23.83;14.02;;;9.50;99.90;;;;;;5058399;28;20439;-70
2022/11/11 07:32:06;;;;;;;22.02;14.32;;;9.60;99.90;;;;;;5066880;28;20032;-70
2022/11/11 07:34:50;;;;;;;23.30;13.15;;;9.60;99.90;;;;;;5067021;28;20504;-70
2022/11/11 07:37:35;;;;;;;20.92;14.40;;;9.70;99.90;;;;;;5062412;28;20411;-70
2022/11/11 07:40:20;;;;;;;20.80;14.35;;;9.70;99.90;;;;;;5057489;28;20496;-69
2022/11/11 07:43:04;;;;;;;18.65;11.27;;;9.80;99.90;;;;;;5058201;28;20110;-70
2022/11/11 07:45:48;;;;;;;26.60;12.55;;;9.60;99.90;;;;;;5068634;28;20115;-69
2022/11/11 07:48:32;;;;;;;23.55;15.30;;;9.60;99.90;;;;;;5062188;28;20047;-69
2022/11/11 07:51:16;;;;;;;22.75;12.93;;;9.50;99.90;;;;;;5057984;28;20565;-69
2022/11/11 07:54:01;;;;;;;17.98;10.85;;;9.40;99.90;;;;;;5053747;28;20032;-71
2022/11/11 07:56:45;;;;;;;21.80;12.27;;;9.40;99.90;;;;;;5050415;28;20052;-71
2022/11/11 07:59:29;;;;;;;28.42;14.27;;;9.40;99.90;;;;;;5049223;28;20036;-70
2022/11/11 08:02:13;;;;;;;18.15;12.43;;;9.70;99.90;;;;;;5057457;28;20455;-70
2022/11/11 08:04:58;;;;;;;19.38;11.18;;;9.60;99.90;;;;;;5050779;28;20036;-71
2022/11/11 08:07:42;;;;;;;23.70;12.73;;;9.50;99.90;;;;;;5043161;28;20036;-71
2022/11/11 08:10:26;;;;;;;23.33;11.20;;;9.40;99.90;;;;;;5035929;28;20167;-70
2022/11/11 08:16:15;;;;;;;21.10;11.52;;;9.60;99.90;;;;;;5045672;28;20040;-71
2022/11/11 08:18:59;;;;;;;18.02;9.60;;;9.60;99.90;;;;;;5052206;28;20089;-71
2022/11/11 08:21:44;;;;;;;15.48;10.40;;;9.70;99.90;;;;;;5036701;28;20056;-71
2022/11/11 08:24:28;;;;;;;22.27;10.13;;;9.70;99.90;;;;;;5046050;28;20058;-70
2022/11/11 08:27:12;;;;;;;20.08;10.38;;;9.50;99.90;;;;;;5036552;28;20032;-71
2022/11/11 08:29:56;;;;;;;16.80;9.85;;;9.60;99.90;;;;;;5036861;28;20040;-71
2022/11/11 08:32:40;;;;;;;17.45;11.30;;;9.60;99.90;;;;;;5045278;28;20052;-72
2022/11/11 08:35:26;;;;;;;16.58;10.75;;;9.70;99.90;;;;;;5040282;28;20460;-70
2022/11/11 08:38:12;;;;;;;24.65;11.23;;;9.70;99.90;;;;;;5044893;28;20044;-71
2022/11/11 08:41:03;;;;;;;17.13;10.52;;;9.80;99.90;;;;;;5049464;28;20515;-71
2022/11/11 08:43:51;;;;;;;21.70;11.30;;;9.80;99.90;;;;;;5051582;28;20048;-70
2022/11/11 08:46:35;;;;;;;26.33;11.43;;;9.80;99.90;;;;;;5051540;28;20115;-70
2022/11/11 08:49:19;;;;;;;16.50;10.90;;;9.90;99.90;;;;;;5051341;28;20508;-70
2022/11/11 08:52:04;;;;;;;17.90;11.48;;;10.10;99.90;;;;;;5051516;28;20055;-69
2022/11/11 08:54:48;;;;;;;17.65;10.82;;;10.10;99.90;;;;;;5050986;28;20528;-69
2022/11/11 08:57:32;;;;;;;20.38;11.00;;;9.90;99.90;;;;;;5051344;28;20531;-70
2022/11/11 09:00:17;;;;;;;17.80;9.88;;;9.90;99.90;;;;;;5050926;28;20115;-69
2022/11/11 09:03:03;;;;;;;19.90;9.80;;;10.00;99.90;;;;;;5047783;28;20044;-69
2022/11/11 09:05:48;;;;;;;18.70;9.93;;;10.10;99.90;;;;;;5051953;28;20520;-71
2022/11/11 09:08:32;;;;;;;18.13;8.88;;;10.20;99.90;;;;;;5051708;28;20043;-69
2022/11/11 09:11:16;;;;;;;21.83;9.27;;;10.00;99.90;;;;;;5051272;28;20082;-69
2022/11/11 09:14:01;;;;;;;16.98;9.65;;;10.10;99.90;;;;;;5050571;28;20127;-69
2022/11/11 09:16:45;;;;;;;19.98;9.60;;;10.10;99.90;;;;;;5051789;28;20156;-70
2022/11/11 09:19:29;;;;;;;16.20;8.15;;;10.30;99.90;;;;;;5044249;28;20048;-70
2022/11/11 09:22:13;;;;;;;16.40;9.50;;;10.30;99.90;;;;;;5051585;28;20507;-69
2022/11/11 09:24:57;;;;;;;12.13;8.68;;;10.40;99.90;;;;;;5042188;28;20281;-70
2022/11/11 09:27:42;;;;;;;18.20;8.32;;;10.30;99.90;;;;;;5049936;28;20036;-70
2022/11/11 09:30:28;;;;;;;11.05;7.68;;;10.40;99.90;;;;;;5056659;28;20075;-69
2022/11/11 09:33:15;;;;;;;24.30;8.43;;;10.60;99.90;;;;;;5055594;28;20570;-70
2022/11/11 09:35:59;;;;;;;18.33;7.38;;;10.70;99.90;;;;;;5048869;28;20086;-69
2022/11/11 09:38:44;;;;;;;17.17;7.53;;;10.60;99.90;;;;;;5060357;28;20128;-69
2022/11/11 09:41:46;;;;;;;15.95;7.93;;;10.60;99.90;;;;;;5056010;28;20458;-70
2022/11/11 09:45:05;;;;;;;11.50;6.30;;;10.80;99.90;;;;;;5036672;28;20053;-70
2022/11/11 09:48:06;;;;;;;12.13;7.18;;;10.50;99.90;;;;;;5039050;28;20048;-70
2022/11/11 09:50:53;;;;;;;14.02;7.10;;;10.60;99.90;;;;;;5049001;28;20040;-70
2022/11/11 09:53:45;;;;;;;10.50;5.90;;;10.90;99.90;;;;;;5053833;28;20044;-69
2022/11/11 09:56:31;;;;;;;7.95;5.35;;;11.20;99.90;;;;;;5056916;28;20035;-71
2022/11/11 09:59:27;;;;;;;8.02;5.63;;;11.40;99.90;;;;;;5055709;28;20182;-70
2022/11/11 10:02:50;;;;;;;10.80;5.82;;;11.30;99.90;;;;;;5053632;28;20446;-70
2022/11/11 10:05:56;;;;;;;16.25;5.57;;;11.90;99.90;;;;;;5038447;28;20036;-70
2022/11/11 10:09:20;;;;;;;7.93;5.20;;;12.00;99.90;;;;;;5036388;28;20035;-70
2022/11/11 10:12:11;;;;;;;13.32;5.43;;;11.80;99.90;;;;;;5036574;28;20040;-70
2022/11/11 10:14:56;;;;;;;10.63;5.57;;;12.00;99.90;;;;;;5039252;28;20452;-70
2022/11/11 10:18:30;;;;;;;18.20;5.60;;;12.40;99.90;;;;;;5045648;28;20429;-70
2022/11/11 10:21:21;;;;;;;14.55;5.90;;;12.20;99.90;;;;;;5032154;28;20060;-71
2022/11/11 10:24:13;;;;;;;12.38;5.80;;;12.20;99.90;;;;;;5048312;28;20040;-72
2022/11/11 10:27:08;;;;;;;12.27;6.00;;;12.20;99.90;;;;;;5055586;28;20027;-72
2022/11/11 10:29:53;;;;;;;10.05;5.28;;;12.60;99.90;;;;;;5058224;28;20051;-69
2022/11/11 10:32:37;;;;;;;12.77;5.95;;;12.70;99.90;;;;;;5057729;28;20051;-69
2022/11/11 10:35:28;;;;;;;8.90;6.03;;;12.70;99.90;;;;;;5057253;28;20111;-69
2022/11/11 10:38:16;;;;;;;10.95;5.55;;;12.60;99.90;;;;;;5048065;28;20087;-72
2022/11/11 10:41:39;;;;;;;11.88;5.10;;;13.30;99.90;;;;;;5060742;28;20032;-72
2022/11/11 10:44:28;;;;;;;14.68;6.60;;;13.30;99.90;;;;;;5054949;28;20090;-72
2022/11/11 10:47:38;;;;;;;8.88;4.85;;;13.80;99.90;;;;;;5055805;28;20036;-72
2022/11/11 10:50:36;;;;;;;14.85;5.93;;;13.80;99.90;;;;;;5043660;28;20052;-72
2022/11/11 10:53:34;;;;;;;18.77;6.63;;;14.30;99.90;;;;;;5041026;28;20109;-72
2022/11/11 10:56:37;;;;;;;11.40;5.68;;;13.90;99.90;;;;;;5053943;28;20543;-72
2022/11/11 10:59:29;;;;;;;10.50;5.75;;;13.50;99.90;;;;;;5053804;28;20122;-70
2022/11/11 11:02:25;;;;;;;12.02;6.47;;;13.80;99.90;;;;;;5053739;28;20160;-70
2022/11/11 11:05:28;;;;;;;9.60;6.15;;;14.10;99.90;;;;;;5053972;28;20035;-71
2022/11/11 11:08:20;;;;;;;8.07;6.15;;;14.70;99.90;;;;;;5053992;28;20094;-70
2022/11/11 11:11:25;;;;;;;;;;;14.80;99.90;;;;;;5055123;28;20507;-70
2022/11/11 11:14:15;;;;;;;11.02;7.25;;;14.80;99.90;;;;;;5053628;28;20382;-70
2022/11/11 11:17:08;;;;;;;15.95;7.10;;;15.00;99.90;;;;;;5052362;28;20087;-71
2022/11/11 11:20:18;;;;;;;12.05;6.38;;;15.00;99.90;;;;;;5053050;28;20154;-70
2022/11/11 11:23:03;;;;;;;12.70;6.53;;;14.90;99.90;;;;;;5053228;28;20047;-70
2022/11/11 11:25:55;;;;;;;13.45;7.15;;;14.90;99.90;;;;;;5041608;28;20040;-70
2022/11/11 11:29:00;;;;;;;13.90;6.35;;;15.30;99.90;;;;;;5053616;28;20057;-70
2022/11/11 11:31:46;;;;;;;10.75;6.18;;;16.00;99.90;;;;;;5053990;28;20048;-70
2022/11/11 11:34:59;;;;;;;11.05;6.72;;;15.80;99.90;;;;;;5054256;28;20147;-70
2022/11/11 11:37:49;;;;;;;12.30;6.47;;;16.60;99.90;;;;;;5053256;28;20527;-70
2022/11/11 11:40:47;;;;;;;12.65;7.07;;;16.80;99.90;;;;;;5053511;28;20094;-70
2022/11/11 11:43:34;;;;;;;12.00;7.00;;;17.10;99.90;;;;;;5043047;28;20515;-70
2022/11/11 11:46:27;;;;;;;10.02;6.18;;;16.20;99.90;;;;;;5048909;28;20036;-70
2022/11/11 11:49:49;;;;;;;9.40;6.90;;;16.00;99.90;;;;;;5044431;28;20052;-70
2022/11/11 11:52:36;;;;;;;;;;;16.00;99.90;;;;;;5036862;28;20075;-70
2022/11/11 11:55:24;;;;;;;11.80;6.38;;;16.10;99.90;;;;;;5041312;28;19919;-69
2022/11/11 11:58:14;;;;;;;9.13;5.95;;;15.60;99.90;;;;;;5036709;28;20126;-70
2022/11/11 12:01:12;;;;;;;14.43;6.70;;;16.20;99.90;;;;;;5038532;28;20036;-70
2022/11/11 12:04:15;;;;;;;8.65;5.70;;;16.20;99.90;;;;;;5040947;28;20075;-70
2022/11/11 12:07:18;;;;;;;12.43;5.68;;;16.60;99.90;;;;;;5046795;28;20027;-70
2022/11/11 12:10:21;;;;;;;10.30;6.13;;;16.20;99.90;;;;;;5050243;28;20048;-70
2022/11/11 12:13:31;;;;;;;9.73;5.85;;;16.30;99.90;;;;;;5052876;28;20032;-70
2022/11/11 12:16:26;;;;;;;11.02;5.45;;;16.20;99.90;;;;;;5050655;28;20095;-70
2022/11/11 12:19:22;;;;;;;10.65;5.60;;;16.20;99.90;;;;;;5052607;28;20083;-70
2022/11/11 12:22:13;;;;;;;9.77;5.28;;;16.20;99.90;;;;;;5052835;28;20044;-70
2022/11/11 12:25:25;;;;;;;14.68;6.65;;;15.10;99.90;;;;;;5052688;28;20075;-70
2022/11/11 12:28:39;;;;;;;10.20;6.13;;;15.70;99.90;;;;;;5044154;28;20068;-70
2022/11/11 12:31:35;;;;;;;8.63;6.28;;;15.60;99.90;;;;;;5052630;28;20122;-70
2022/11/11 12:35:04;;;;;;;9.55;5.80;;;15.80;99.90;;;;;;5052787;28;20032;-70
2022/11/11 12:37:59;;;;;;;7.90;5.93;;;15.80;99.90;;;;;;5053081;28;20095;-69
2022/11/11 12:40:50;;;;;;;7.32;5.47;;;16.20;99.90;;;;;;5051268;28;20043;-70
2022/11/11 12:43:40;;;;;;;8.50;4.88;;;16.60;99.90;;;;;;5051682;28;20056;-69
2022/11/11 12:46:53;;;;;;;9.73;5.13;;;16.30;99.90;;;;;;5052195;28;20083;-69
2022/11/11 12:49:51;;;;;;;10.35;5.18;;;16.40;99.90;;;;;;5052466;28;20056;-69
2022/11/11 12:53:14;;;;;;;10.45;5.47;;;15.90;99.90;;;;;;5052506;28;20040;-69
2022/11/11 12:56:04;;;;;;;9.55;5.28;;;15.70;99.90;;;;;;5052306;28;20048;-69
2022/11/11 12:59:17;;;;;;;9.05;5.32;;;15.80;99.90;;;;;;5051400;28;20139;-70
2022/11/11 13:02:17;;;;;;;9.20;5.13;;;15.90;99.90;;;;;;5048410;28;20159;-70
2022/11/11 13:05:07;;;;;;;9.65;5.28;;;15.70;99.90;;;;;;5042942;28;20099;-70
2022/11/11 13:08:19;;;;;;;11.52;4.95;;;16.20;99.90;;;;;;5044859;28;20084;-69
2022/11/11 13:11:06;;;;;;;;;;;16.80;99.90;;;;;;5053595;28;20067;-69
2022/11/11 13:14:06;;;;;;;10.05;4.75;;;17.60;99.90;;;;;;5053323;28;19915;-70
2022/11/11 13:16:54;;;;;;;9.80;4.85;;;17.80;99.90;;;;;;5044203;28;20072;-69
2022/11/11 13:20:18;;;;;;;8.75;4.63;;;17.60;99.90;;;;;;5037261;28;20500;-69
2022/11/11 13:23:06;;;;;;;6.13;4.03;;;17.50;99.90;;;;;;5041355;28;20174;-69
2022/11/11 13:26:00;;;;;;;9.23;4.95;;;17.40;99.90;;;;;;5047885;28;20048;-70
2022/11/11 13:28:48;;;;;;;7.90;4.20;;;17.30;99.90;;;;;;5054887;28;20051;-70
2022/11/11 13:31:36;;;;;;;6.93;4.40;;;17.10;99.90;;;;;;5044554;28;20103;-69
2022/11/11 13:34:21;;;;;;;9.10;4.53;;;16.30;99.90;;;;;;5049315;28;20536;-69
2022/11/11 13:37:09;;;;;;;8.20;4.45;;;16.80;99.90;;;;;;5054121;28;20043;-69
2022/11/11 13:40:06;;;;;;;12.27;6.38;;;16.80;99.90;;;;;;5054225;28;20059;-70
2022/11/11 13:42:51;;;;;;;7.03;4.40;;;17.70;99.90;;;;;;5056300;28;20038;-70
2022/11/11 13:45:40;;;;;;;10.70;5.32;;;17.90;99.90;;;;;;5052394;28;20036;-70
2022/11/11 13:48:35;;;;;;;12.00;5.40;;;17.30;99.90;;;;;;5054010;28;20055;-71
2022/11/11 13:51:22;;;;;;;7.43;5.20;;;17.50;99.90;;;;;;5054946;28;20048;-71
2022/11/11 13:54:34;;;;;;;10.05;4.80;;;17.90;99.90;;;;;;5053052;28;20036;-71
2022/11/11 13:57:21;;;;;;;;;;;18.10;99.90;;;;;;5052758;28;20445;-69
2022/11/11 14:00:23;;;;;;;9.32;4.90;;;17.70;99.90;;;;;;5055842;28;20424;-70
2022/11/11 14:03:16;;;;;;;9.30;4.22;;;17.40;99.90;;;;;;5058451;28;20503;-69
2022/11/11 14:06:16;;;;;;;11.63;4.40;;;16.90;99.90;;;;;;5053424;28;20148;-70
2022/11/11 14:09:01;;;;;;;10.45;3.92;;;16.90;99.90;;;;;;5053825;28;20187;-70
2022/11/11 14:11:46;;;;;;;11.63;4.22;;;17.10;99.90;;;;;;5049371;28;20113;-70
2022/11/11 14:14:33;;;;;;;11.02;4.55;;;17.40;99.90;;;;;;5053841;28;20471;-70
2022/11/11 14:17:18;;;;;;;11.32;3.72;;;17.90;99.90;;;;;;5053994;28;20060;-69
2022/11/11 14:20:50;;;;;;;11.73;6.65;;;17.80;99.90;;;;;;5047954;28;20071;-71
2022/11/11 14:23:40;;;;;;;10.77;4.40;;;17.60;99.90;;;;;;5047643;28;20067;-71
2022/11/11 14:26:26;;;;;;;6.43;3.80;;;17.70;99.90;;;;;;5050141;28;20507;-70
2022/11/11 14:29:18;;;;;;;10.90;5.55;;;16.60;99.90;;;;;;5049329;28;20578;-71
2022/11/11 14:32:18;;;;;;;9.18;4.60;;;16.50;99.90;;;;;;5054776;28;20062;-71
2022/11/11 14:35:08;;;;;;;7.68;4.35;;;16.70;99.90;;;;;;5044274;28;20102;-68
2022/11/11 14:38:04;;;;;;;8.63;4.07;;;16.80;99.90;;;;;;5052589;28;20073;-69
2022/11/11 14:40:49;;;;;;;4.70;3.40;;;16.80;99.90;;;;;;5054538;28;20059;-69
2022/11/11 14:43:39;;;;;;;5.47;3.42;;;16.40;99.90;;;;;;5055230;28;20098;-69
2022/11/11 14:46:23;;;;;;;15.13;7.28;;;16.30;99.90;;;;;;5054644;28;20098;-68
2022/11/11 14:49:07;;;;;;;5.68;3.45;;;16.20;99.90;;;;;;5053822;28;20087;-68
2022/11/11 14:52:01;;;;;;;7.95;3.80;;;15.70;99.90;;;;;;5042554;28;20112;-69
2022/11/11 14:54:54;;;;;;;6.78;4.15;;;15.50;99.90;;;;;;5054735;28;20463;-68
2022/11/11 14:57:40;;;;;;;13.07;7.80;;;15.40;99.90;;;;;;5055027;28;20044;-68
2022/11/11 15:00:27;;;;;;;10.15;4.95;;;15.00;99.90;;;;;;5036694;28;20103;-68
2022/11/11 15:03:23;;;;;;;13.60;4.60;;;14.90;99.90;;;;;;5051947;28;20063;-68
2022/11/11 15:06:17;;;;;;;9.55;4.32;;;14.80;99.90;;;;;;5054024;28;20033;-69
2022/11/11 15:09:40;;;;;;;9.55;5.03;;;14.80;99.90;;;;;;5053554;28;20132;-68
2022/11/11 15:12:39;;;;;;;10.65;5.10;;;14.60;99.90;;;;;;5054122;28;20056;-68
2022/11/11 15:15:31;;;;;;;10.43;4.85;;;14.40;99.90;;;;;;5053385;28;20047;-68
2022/11/11 15:18:57;;;;;;;14.68;5.10;;;14.20;99.90;;;;;;5052820;28;20044;-69
2022/11/11 15:21:47;;;;;;;7.43;4.75;;;14.30;99.90;;;;;;5051746;28;20040;-68
2022/11/11 15:24:36;;;;;;;6.93;4.35;;;14.30;99.90;;;;;;5045504;28;20044;-69
2022/11/11 15:27:46;;;;;;;9.02;5.40;;;14.40;99.90;;;;;;5040715;28;20032;-69
2022/11/11 15:30:57;;;;;;;8.18;4.55;;;14.30;99.90;;;;;;5053674;28;20107;-68
2022/11/11 15:34:04;;;;;;;10.43;5.35;;;14.10;99.90;;;;;;5053966;28;20052;-69
2022/11/11 15:36:54;;;;;;;13.93;6.32;;;14.30;99.90;;;;;;5044428;28;20101;-69
2022/11/11 15:39:49;;;;;;;10.60;4.85;;;14.30;99.90;;;;;;5054087;28;20071;-69
2022/11/11 15:42:39;;;;;;;8.98;5.70;;;14.30;99.90;;;;;;5053806;28;20079;-69
2022/11/11 15:45:32;;;;;;;13.65;7.68;;;14.30;99.90;;;;;;5053836;28;20036;-71
2022/11/11 15:48:39;;;;;;;18.80;9.70;;;14.20;99.90;;;;;;5037587;28;20091;-72